sensor_id;sensor_type;location;lat;lon;timestamp;temperature;humidity
66861;SHT31;53770;42.334;23.550;2022-09-03T00:01:46;18.13;81.07
66861;SHT31;53770;42.334;23.550;2022-09-03T00:04:21;18.09;81.01
66861;SHT31;53770;42.334;23.550;2022-09-03T00:06:54;18.13;81.06
66861;SHT31;53770;42.334;23.550;2022-09-03T00:09:26;18.14;80.99
66861;SHT31;53770;42.334;23.550;2022-09-03T00:12:00;18.11;80.97
66861;SHT31;53770;42.334;23.550;2022-09-03T00:14:34;18.14;80.98
66861;SHT31;53770;42.334;23.550;2022-09-03T00:17:08;18.14;80.97
66861;SHT31;53770;42.334;23.550;2022-09-03T00:19:39;18.17;80.80
66861;SHT31;53770;42.334;23.550;2022-09-03T00:22:09;18.16;80.76
66861;SHT31;53770;42.334;23.550;2022-09-03T00:24:41;18.14;80.79
66861;SHT31;53770;42.334;23.550;2022-09-03T00:27:13;18.14;80.78
66861;SHT31;53770;42.334;23.550;2022-09-03T00:29:47;18.10;80.88
66861;SHT31;53770;42.334;23.550;2022-09-03T00:32:19;18.10;80.91
66861;SHT31;53770;42.334;23.550;2022-09-03T00:34:50;18.06;80.99
66861;SHT31;53770;42.334;23.550;2022-09-03T00:37:18;18.04;81.16
66861;SHT31;53770;42.334;23.550;2022-09-03T00:39:44;18.04;81.21
66861;SHT31;53770;42.334;23.550;2022-09-03T00:42:32;18.03;81.26
66861;SHT31;53770;42.334;23.550;2022-09-03T00:45:11;18.04;81.45
66861;SHT31;53770;42.334;23.550;2022-09-03T00:47:52;18.06;81.37
66861;SHT31;53770;42.334;23.550;2022-09-03T00:50:29;18.06;81.32
66861;SHT31;53770;42.334;23.550;2022-09-03T00:53:03;18.04;81.20
66861;SHT31;53770;42.334;23.550;2022-09-03T00:55:39;18.04;81.22
66861;SHT31;53770;42.334;23.550;2022-09-03T00:58:24;18.04;81.19
66861;SHT31;53770;42.334;23.550;2022-09-03T01:00:55;18.06;81.12
66861;SHT31;53770;42.334;23.550;2022-09-03T01:03:31;18.03;81.13
66861;SHT31;53770;42.334;23.550;2022-09-03T01:06:15;18.04;81.00
66861;SHT31;53770;42.334;23.550;2022-09-03T01:09:05;18.03;80.89
66861;SHT31;53770;42.334;23.550;2022-09-03T01:11:40;18.02;80.74
66861;SHT31;53770;42.334;23.550;2022-09-03T01:14:15;18.02;80.98
66861;SHT31;53770;42.334;23.550;2022-09-03T01:16:48;18.02;81.08
66861;SHT31;53770;42.334;23.550;2022-09-03T01:19:42;18.00;81.03
66861;SHT31;53770;42.334;23.550;2022-09-03T01:22:29;17.99;81.06
66861;SHT31;53770;42.334;23.550;2022-09-03T01:25:14;17.97;81.07
66861;SHT31;53770;42.334;23.550;2022-09-03T01:30:21;17.97;81.10
66861;SHT31;53770;42.334;23.550;2022-09-03T01:32:55;18.00;81.04
66861;SHT31;53770;42.334;23.550;2022-09-03T01:35:31;18.00;80.91
66861;SHT31;53770;42.334;23.550;2022-09-03T01:38:11;17.97;80.73
66861;SHT31;53770;42.334;23.550;2022-09-03T01:40:45;18.00;80.81
66861;SHT31;53770;42.334;23.550;2022-09-03T01:43:25;18.00;80.79
66861;SHT31;53770;42.334;23.550;2022-09-03T01:46:01;17.99;80.83
66861;SHT31;53770;42.334;23.550;2022-09-03T01:48:47;17.99;80.86
66861;SHT31;53770;42.334;23.550;2022-09-03T01:51:20;18.00;80.75
66861;SHT31;53770;42.334;23.550;2022-09-03T01:54:08;17.99;80.69
66861;SHT31;53770;42.334;23.550;2022-09-03T01:56:57;18.00;80.70
66861;SHT31;53770;42.334;23.550;2022-09-03T01:59:30;17.99;80.58
66861;SHT31;53770;42.334;23.550;2022-09-03T02:02:02;17.97;80.51
66861;SHT31;53770;42.334;23.550;2022-09-03T02:04:31;17.96;80.54
66861;SHT31;53770;42.334;23.550;2022-09-03T02:06:59;17.99;80.38
66861;SHT31;53770;42.334;23.550;2022-09-03T02:09:26;18.00;80.39
66861;SHT31;53770;42.334;23.550;2022-09-03T02:11:56;18.02;80.40
66861;SHT31;53770;42.334;23.550;2022-09-03T02:14:25;17.97;80.35
66861;SHT31;53770;42.334;23.550;2022-09-03T02:16:54;17.96;80.24
66861;SHT31;53770;42.334;23.550;2022-09-03T02:19:26;17.94;80.15
66861;SHT31;53770;42.334;23.550;2022-09-03T02:21:55;17.93;79.96
66861;SHT31;53770;42.334;23.550;2022-09-03T02:24:22;17.94;79.91
66861;SHT31;53770;42.334;23.550;2022-09-03T02:26:51;17.93;79.93
66861;SHT31;53770;42.334;23.550;2022-09-03T02:29:18;17.93;79.98
66861;SHT31;53770;42.334;23.550;2022-09-03T02:31:46;17.92;79.99
66861;SHT31;53770;42.334;23.550;2022-09-03T02:34:13;17.93;80.08
66861;SHT31;53770;42.334;23.550;2022-09-03T02:36:43;17.93;79.96
66861;SHT31;53770;42.334;23.550;2022-09-03T02:39:11;17.93;79.93
66861;SHT31;53770;42.334;23.550;2022-09-03T02:41:38;17.92;80.02
66861;SHT31;53770;42.334;23.550;2022-09-03T02:44:08;17.93;79.96
66861;SHT31;53770;42.334;23.550;2022-09-03T02:46:39;17.93;80.01
66861;SHT31;53770;42.334;23.550;2022-09-03T02:49:07;17.93;80.09
66861;SHT31;53770;42.334;23.550;2022-09-03T02:51:34;17.93;79.96
66861;SHT31;53770;42.334;23.550;2022-09-03T02:54:03;17.89;79.92
66861;SHT31;53770;42.334;23.550;2022-09-03T02:56:30;17.81;78.91
66861;SHT31;53770;42.334;23.550;2022-09-03T02:58:57;17.75;79.16
66861;SHT31;53770;42.334;23.550;2022-09-03T03:01:24;17.75;78.86
66861;SHT31;53770;42.334;23.550;2022-09-03T03:03:52;17.73;78.41
66861;SHT31;53770;42.334;23.550;2022-09-03T03:06:19;17.66;78.16
66861;SHT31;53770;42.334;23.550;2022-09-03T03:08:46;17.59;78.20
66861;SHT31;53770;42.334;23.550;2022-09-03T03:11:15;17.52;78.36
66861;SHT31;53770;42.334;23.550;2022-09-03T03:13:43;17.48;78.79
66861;SHT31;53770;42.334;23.550;2022-09-03T03:16:10;17.52;78.81
66861;SHT31;53770;42.334;23.550;2022-09-03T03:18:38;17.55;78.68
66861;SHT31;53770;42.334;23.550;2022-09-03T03:21:05;17.54;78.72
66861;SHT31;53770;42.334;23.550;2022-09-03T03:23:32;17.54;78.86
66861;SHT31;53770;42.334;23.550;2022-09-03T03:26:00;17.54;79.02
66861;SHT31;53770;42.334;23.550;2022-09-03T03:28:29;17.56;79.13
66861;SHT31;53770;42.334;23.550;2022-09-03T03:30:58;17.61;79.10
66861;SHT31;53770;42.334;23.550;2022-09-03T03:33:25;17.61;79.02
66861;SHT31;53770;42.334;23.550;2022-09-03T03:35:52;17.62;79.06
66861;SHT31;53770;42.334;23.550;2022-09-03T03:38:19;17.64;78.97
66861;SHT31;53770;42.334;23.550;2022-09-03T03:40:46;17.62;78.82
66861;SHT31;53770;42.334;23.550;2022-09-03T03:43:13;17.61;78.61
66861;SHT31;53770;42.334;23.550;2022-09-03T03:45:41;17.61;78.73
66861;SHT31;53770;42.334;23.550;2022-09-03T03:48:07;17.61;78.65
66861;SHT31;53770;42.334;23.550;2022-09-03T03:50:34;17.61;78.23
66861;SHT31;53770;42.334;23.550;2022-09-03T03:53:02;17.61;77.95
66861;SHT31;53770;42.334;23.550;2022-09-03T03:55:29;17.58;77.85
66861;SHT31;53770;42.334;23.550;2022-09-03T03:57:57;17.58;77.88
66861;SHT31;53770;42.334;23.550;2022-09-03T04:00:24;17.58;77.97
66861;SHT31;53770;42.334;23.550;2022-09-03T04:02:52;17.58;77.93
66861;SHT31;53770;42.334;23.550;2022-09-03T04:05:19;17.59;78.08
66861;SHT31;53770;42.334;23.550;2022-09-03T04:07:46;17.64;78.17
66861;SHT31;53770;42.334;23.550;2022-09-03T04:10:13;17.65;78.08
66861;SHT31;53770;42.334;23.550;2022-09-03T04:12:40;17.66;77.94
66861;SHT31;53770;42.334;23.550;2022-09-03T04:15:08;17.68;77.63
66861;SHT31;53770;42.334;23.550;2022-09-03T04:17:35;17.69;77.49
66861;SHT31;53770;42.334;23.550;2022-09-03T04:20:04;17.73;77.72
66861;SHT31;53770;42.334;23.550;2022-09-03T04:22:31;17.79;78.02
66861;SHT31;53770;42.334;23.550;2022-09-03T04:24:58;17.76;78.10
66861;SHT31;53770;42.334;23.550;2022-09-03T04:27:24;17.81;78.16
66861;SHT31;53770;42.334;23.550;2022-09-03T04:29:51;17.76;78.44
66861;SHT31;53770;42.334;23.550;2022-09-03T04:32:18;17.79;78.68
66861;SHT31;53770;42.334;23.550;2022-09-03T04:35:04;17.81;78.90
66861;SHT31;53770;42.334;23.550;2022-09-03T04:37:31;17.81;79.01
66861;SHT31;53770;42.334;23.550;2022-09-03T04:39:58;17.79;79.07
66861;SHT31;53770;42.334;23.550;2022-09-03T04:42:26;17.78;79.28
66861;SHT31;53770;42.334;23.550;2022-09-03T04:44:53;17.81;79.47
66861;SHT31;53770;42.334;23.550;2022-09-03T04:47:20;17.81;79.55
66861;SHT31;53770;42.334;23.550;2022-09-03T04:49:46;17.83;79.52
66861;SHT31;53770;42.334;23.550;2022-09-03T04:52:14;17.85;79.57
66861;SHT31;53770;42.334;23.550;2022-09-03T04:54:41;17.87;79.08
66861;SHT31;53770;42.334;23.550;2022-09-03T04:57:08;17.85;79.14
66861;SHT31;53770;42.334;23.550;2022-09-03T04:59:35;17.76;79.17
66861;SHT31;53770;42.334;23.550;2022-09-03T05:02:01;17.69;79.58
66861;SHT31;53770;42.334;23.550;2022-09-03T05:04:28;17.65;79.90
66861;SHT31;53770;42.334;23.550;2022-09-03T05:06:55;17.58;79.40
66861;SHT31;53770;42.334;23.550;2022-09-03T05:09:23;17.49;79.66
66861;SHT31;53770;42.334;23.550;2022-09-03T05:11:50;17.44;79.92
66861;SHT31;53770;42.334;23.550;2022-09-03T05:14:16;17.32;80.48
66861;SHT31;53770;42.334;23.550;2022-09-03T05:16:43;17.30;80.70
66861;SHT31;53770;42.334;23.550;2022-09-03T05:19:10;17.32;80.71
66861;SHT31;53770;42.334;23.550;2022-09-03T05:21:37;17.39;80.75
66861;SHT31;53770;42.334;23.550;2022-09-03T05:24:04;17.45;80.83
66861;SHT31;53770;42.334;23.550;2022-09-03T05:26:36;17.58;81.03
66861;SHT31;53770;42.334;23.550;2022-09-03T05:29:04;17.82;80.63
66861;SHT31;53770;42.334;23.550;2022-09-03T05:31:33;17.90;80.22
66861;SHT31;53770;42.334;23.550;2022-09-03T05:34:02;18.02;79.96
66861;SHT31;53770;42.334;23.550;2022-09-03T05:36:30;18.04;79.60
66861;SHT31;53770;42.334;23.550;2022-09-03T05:38:58;18.17;79.65
66861;SHT31;53770;42.334;23.550;2022-09-03T05:41:26;18.33;79.29
66861;SHT31;53770;42.334;23.550;2022-09-03T05:43:55;18.41;78.25
66861;SHT31;53770;42.334;23.550;2022-09-03T05:46:24;18.38;78.57
66861;SHT31;53770;42.334;23.550;2022-09-03T05:48:56;18.49;78.40
66861;SHT31;53770;42.334;23.550;2022-09-03T05:51:24;18.55;78.43
66861;SHT31;53770;42.334;23.550;2022-09-03T05:53:50;18.68;78.36
66861;SHT31;53770;42.334;23.550;2022-09-03T05:56:20;18.76;77.81
66861;SHT31;53770;42.334;23.550;2022-09-03T05:58:49;18.89;77.37
66861;SHT31;53770;42.334;23.550;2022-09-03T06:01:19;18.86;77.28
66861;SHT31;53770;42.334;23.550;2022-09-03T06:03:52;18.96;77.20
66861;SHT31;53770;42.334;23.550;2022-09-03T06:06:20;19.07;76.89
66861;SHT31;53770;42.334;23.550;2022-09-03T06:08:50;19.14;76.56
66861;SHT31;53770;42.334;23.550;2022-09-03T06:11:17;19.19;76.24
66861;SHT31;53770;42.334;23.550;2022-09-03T06:13:44;19.22;76.37
66861;SHT31;53770;42.334;23.550;2022-09-03T06:16:11;19.31;76.24
66861;SHT31;53770;42.334;23.550;2022-09-03T06:18:40;19.34;75.98
66861;SHT31;53770;42.334;23.550;2022-09-03T06:21:07;19.30;75.52
66861;SHT31;53770;42.334;23.550;2022-09-03T06:23:34;19.17;75.28
66861;SHT31;53770;42.334;23.550;2022-09-03T06:26:03;19.13;75.65
66861;SHT31;53770;42.334;23.550;2022-09-03T06:28:30;19.13;75.78
66861;SHT31;53770;42.334;23.550;2022-09-03T06:30:58;19.16;75.63
66861;SHT31;53770;42.334;23.550;2022-09-03T06:33:26;19.19;75.61
66861;SHT31;53770;42.334;23.550;2022-09-03T06:35:56;19.30;75.57
66861;SHT31;53770;42.334;23.550;2022-09-03T06:38:24;19.46;75.37
66861;SHT31;53770;42.334;23.550;2022-09-03T06:40:53;19.62;75.03
66861;SHT31;53770;42.334;23.550;2022-09-03T06:43:20;19.74;74.60
66861;SHT31;53770;42.334;23.550;2022-09-03T06:45:57;19.93;74.20
66861;SHT31;53770;42.334;23.550;2022-09-03T06:48:25;20.09;73.54
66861;SHT31;53770;42.334;23.550;2022-09-03T06:50:59;20.20;73.22
66861;SHT31;53770;42.334;23.550;2022-09-03T06:53:27;20.32;72.78
66861;SHT31;53770;42.334;23.550;2022-09-03T06:55:55;20.41;72.44
66861;SHT31;53770;42.334;23.550;2022-09-03T06:58:23;20.46;72.14
66861;SHT31;53770;42.334;23.550;2022-09-03T07:00:49;20.47;72.17
66861;SHT31;53770;42.334;23.550;2022-09-03T07:03:18;20.51;72.15
66861;SHT31;53770;42.334;23.550;2022-09-03T07:05:45;20.63;71.99
66861;SHT31;53770;42.334;23.550;2022-09-03T07:08:13;20.73;71.34
66861;SHT31;53770;42.334;23.550;2022-09-03T07:10:44;20.73;70.71
66861;SHT31;53770;42.334;23.550;2022-09-03T07:13:11;20.68;70.40
66861;SHT31;53770;42.334;23.550;2022-09-03T07:15:38;20.64;70.50
66861;SHT31;53770;42.334;23.550;2022-09-03T07:18:05;20.77;70.35
66861;SHT31;53770;42.334;23.550;2022-09-03T07:20:34;20.85;69.99
66861;SHT31;53770;42.334;23.550;2022-09-03T07:23:00;21.03;69.42
66861;SHT31;53770;42.334;23.550;2022-09-03T07:25:28;21.22;69.22
66861;SHT31;53770;42.334;23.550;2022-09-03T07:27:56;21.38;68.37
66861;SHT31;53770;42.334;23.550;2022-09-03T07:30:24;21.53;67.58
66861;SHT31;53770;42.334;23.550;2022-09-03T07:32:51;21.76;67.10
66861;SHT31;53770;42.334;23.550;2022-09-03T07:35:18;21.88;66.01
66861;SHT31;53770;42.334;23.550;2022-09-03T07:37:45;22.01;65.36
66861;SHT31;53770;42.334;23.550;2022-09-03T07:40:12;22.14;65.06
66861;SHT31;53770;42.334;23.550;2022-09-03T07:42:41;22.21;64.51
66861;SHT31;53770;42.334;23.550;2022-09-03T07:45:08;22.29;64.35
66861;SHT31;53770;42.334;23.550;2022-09-03T07:47:36;22.36;63.91
66861;SHT31;53770;42.334;23.550;2022-09-03T07:50:05;22.45;63.53
66861;SHT31;53770;42.334;23.550;2022-09-03T07:52:32;22.59;63.99
66861;SHT31;53770;42.334;23.550;2022-09-03T07:54:59;22.73;63.54
66861;SHT31;53770;42.334;23.550;2022-09-03T07:57:27;22.93;63.51
66861;SHT31;53770;42.334;23.550;2022-09-03T07:59:55;23.17;62.92
66861;SHT31;53770;42.334;23.550;2022-09-03T08:02:22;23.24;61.70
66861;SHT31;53770;42.334;23.550;2022-09-03T08:04:49;23.25;61.51
66861;SHT31;53770;42.334;23.550;2022-09-03T08:07:16;23.29;60.79
66861;SHT31;53770;42.334;23.550;2022-09-03T08:09:43;23.32;61.45
66861;SHT31;53770;42.334;23.550;2022-09-03T08:12:09;23.58;61.23
66861;SHT31;53770;42.334;23.550;2022-09-03T08:14:36;23.94;60.32
66861;SHT31;53770;42.334;23.550;2022-09-03T08:17:04;24.24;59.59
66861;SHT31;53770;42.334;23.550;2022-09-03T08:19:32;24.52;58.29
66861;SHT31;53770;42.334;23.550;2022-09-03T08:21:59;24.68;57.55
66861;SHT31;53770;42.334;23.550;2022-09-03T08:24:26;24.85;56.83
66861;SHT31;53770;42.334;23.550;2022-09-03T08:26:52;24.97;56.88
66861;SHT31;53770;42.334;23.550;2022-09-03T08:29:20;25.12;56.17
66861;SHT31;53770;42.334;23.550;2022-09-03T08:31:47;25.30;55.86
66861;SHT31;53770;42.334;23.550;2022-09-03T08:34:15;25.50;55.58
66861;SHT31;53770;42.334;23.550;2022-09-03T08:36:42;25.60;55.31
66861;SHT31;53770;42.334;23.550;2022-09-03T08:39:10;25.51;54.98
66861;SHT31;53770;42.334;23.550;2022-09-03T08:41:53;25.34;54.62
66861;SHT31;53770;42.334;23.550;2022-09-03T08:44:26;25.09;55.10
66861;SHT31;53770;42.334;23.550;2022-09-03T08:46:57;24.86;55.59
66861;SHT31;53770;42.334;23.550;2022-09-03T08:49:31;24.72;56.45
66861;SHT31;53770;42.334;23.550;2022-09-03T08:52:01;24.79;55.97
66861;SHT31;53770;42.334;23.550;2022-09-03T08:54:29;24.79;55.94
66861;SHT31;53770;42.334;23.550;2022-09-03T08:56:59;24.82;55.75
66861;SHT31;53770;42.334;23.550;2022-09-03T08:59:27;24.80;56.37
66861;SHT31;53770;42.334;23.550;2022-09-03T09:01:56;24.89;56.15
66861;SHT31;53770;42.334;23.550;2022-09-03T09:04:36;25.03;55.64
66861;SHT31;53770;42.334;23.550;2022-09-03T09:07:10;25.12;55.35
66861;SHT31;53770;42.334;23.550;2022-09-03T09:09:45;25.33;55.07
66861;SHT31;53770;42.334;23.550;2022-09-03T09:12:20;25.68;54.45
66861;SHT31;53770;42.334;23.550;2022-09-03T09:15:04;26.13;53.62
66861;SHT31;53770;42.334;23.550;2022-09-03T09:17:50;26.40;52.39
66861;SHT31;53770;42.334;23.550;2022-09-03T09:20:26;26.51;52.01
66861;SHT31;53770;42.334;23.550;2022-09-03T09:22:56;26.75;51.46
66861;SHT31;53770;42.334;23.550;2022-09-03T09:25:25;27.06;50.58
66861;SHT31;53770;42.334;23.550;2022-09-03T09:27:57;27.57;49.94
66861;SHT31;53770;42.334;23.550;2022-09-03T09:30:25;28.42;49.33
66861;SHT31;53770;42.334;23.550;2022-09-03T09:32:53;29.28;47.40
66861;SHT31;53770;42.334;23.550;2022-09-03T09:35:22;30.03;45.53
66861;SHT31;53770;42.334;23.550;2022-09-03T09:37:51;30.64;43.94
66861;SHT31;53770;42.334;23.550;2022-09-03T09:40:27;31.37;43.46
66861;SHT31;53770;42.334;23.550;2022-09-03T09:43:06;32.13;41.72
66861;SHT31;53770;42.334;23.550;2022-09-03T09:45:35;32.02;40.21
66861;SHT31;53770;42.334;23.550;2022-09-03T09:48:09;31.13;40.41
66861;SHT31;53770;42.334;23.550;2022-09-03T09:50:40;30.54;42.38
66861;SHT31;53770;42.334;23.550;2022-09-03T09:53:08;30.59;42.83
66861;SHT31;53770;42.334;23.550;2022-09-03T09:55:51;31.38;42.26
66861;SHT31;53770;42.334;23.550;2022-09-03T09:58:20;32.41;40.79
66861;SHT31;53770;42.334;23.550;2022-09-03T10:01:00;33.53;38.51
66861;SHT31;53770;42.334;23.550;2022-09-03T10:03:30;34.51;37.17
66861;SHT31;53770;42.334;23.550;2022-09-03T10:06:05;35.27;35.93
66861;SHT31;53770;42.334;23.550;2022-09-03T10:08:50;35.71;35.02
66861;SHT31;53770;42.334;23.550;2022-09-03T10:11:19;35.95;34.40
66861;SHT31;53770;42.334;23.550;2022-09-03T10:13:51;36.67;33.11
66861;SHT31;53770;42.334;23.550;2022-09-03T10:16:21;37.32;31.93
66861;SHT31;53770;42.334;23.550;2022-09-03T10:18:57;37.39;30.90
66861;SHT31;53770;42.334;23.550;2022-09-03T10:21:29;36.50;31.92
66861;SHT31;53770;42.334;23.550;2022-09-03T10:24:12;36.09;32.79
66861;SHT31;53770;42.334;23.550;2022-09-03T10:26:42;35.53;33.65
66861;SHT31;53770;42.334;23.550;2022-09-03T10:29:11;35.92;33.15
66861;SHT31;53770;42.334;23.550;2022-09-03T10:31:50;36.03;32.82
66861;SHT31;53770;42.334;23.550;2022-09-03T10:34:26;35.37;33.03
66861;SHT31;53770;42.334;23.550;2022-09-03T10:37:12;34.66;34.59
66861;SHT31;53770;42.334;23.550;2022-09-03T10:39:53;36.12;33.29
66861;SHT31;53770;42.334;23.550;2022-09-03T10:42:34;38.82;29.45
66861;SHT31;53770;42.334;23.550;2022-09-03T10:45:10;41.02;26.71
66861;SHT31;53770;42.334;23.550;2022-09-03T10:48:02;42.14;25.37
66861;SHT31;53770;42.334;23.550;2022-09-03T10:50:37;43.78;23.90
66861;SHT31;53770;42.334;23.550;2022-09-03T10:53:13;44.63;23.02
66861;SHT31;53770;42.334;23.550;2022-09-03T10:55:49;43.86;23.28
66861;SHT31;53770;42.334;23.550;2022-09-03T10:58:46;40.81;25.60
66861;SHT31;53770;42.334;23.550;2022-09-03T11:01:19;38.76;27.84
66861;SHT31;53770;42.334;23.550;2022-09-03T11:03:55;39.44;28.24
66861;SHT31;53770;42.334;23.550;2022-09-03T11:06:27;39.90;27.62
66861;SHT31;53770;42.334;23.550;2022-09-03T11:08:58;41.63;25.79
66861;SHT31;53770;42.334;23.550;2022-09-03T11:11:30;43.79;23.71
66861;SHT31;53770;42.334;23.550;2022-09-03T11:14:02;43.10;23.80
66861;SHT31;53770;42.334;23.550;2022-09-03T11:16:35;43.22;24.27
66861;SHT31;53770;42.334;23.550;2022-09-03T11:19:05;41.53;25.09
66861;SHT31;53770;42.334;23.550;2022-09-03T11:21:34;39.86;26.94
66861;SHT31;53770;42.334;23.550;2022-09-03T11:24:10;40.64;26.55
66861;SHT31;53770;42.334;23.550;2022-09-03T11:26:39;42.03;24.96
66861;SHT31;53770;42.334;23.550;2022-09-03T11:29:11;43.25;24.51
66861;SHT31;53770;42.334;23.550;2022-09-03T11:31:53;43.85;23.35
66861;SHT31;53770;42.334;23.550;2022-09-03T11:34:28;43.21;23.40
66861;SHT31;53770;42.334;23.550;2022-09-03T11:37:15;41.25;24.96
66861;SHT31;53770;42.334;23.550;2022-09-03T11:39:43;39.69;27.11
66861;SHT31;53770;42.334;23.550;2022-09-03T11:42:12;38.29;28.57
66861;SHT31;53770;42.334;23.550;2022-09-03T11:44:49;36.73;30.31
66861;SHT31;53770;42.334;23.550;2022-09-03T11:47:21;35.45;31.93
66861;SHT31;53770;42.334;23.550;2022-09-03T11:49:50;34.44;33.49
66861;SHT31;53770;42.334;23.550;2022-09-03T11:52:27;33.45;35.01
66861;SHT31;53770;42.334;23.550;2022-09-03T11:54:57;32.70;36.23
66861;SHT31;53770;42.334;23.550;2022-09-03T11:57:26;32.13;36.82
66861;SHT31;53770;42.334;23.550;2022-09-03T11:59:54;31.72;37.69
66861;SHT31;53770;42.334;23.550;2022-09-03T12:02:35;31.24;38.44
66861;SHT31;53770;42.334;23.550;2022-09-03T12:05:15;30.78;39.04
66861;SHT31;53770;42.334;23.550;2022-09-03T12:07:59;30.34;39.57
66861;SHT31;53770;42.334;23.550;2022-09-03T12:10:36;29.99;39.45
66861;SHT31;53770;42.334;23.550;2022-09-03T12:13:20;30.03;40.38
66861;SHT31;53770;42.334;23.550;2022-09-03T12:16:03;31.77;37.80
66861;SHT31;53770;42.334;23.550;2022-09-03T12:18:34;33.25;34.78
66861;SHT31;53770;42.334;23.550;2022-09-03T12:21:02;34.86;32.91
66861;SHT31;53770;42.334;23.550;2022-09-03T12:23:33;34.96;32.46
66861;SHT31;53770;42.334;23.550;2022-09-03T12:26:04;34.55;33.33
66861;SHT31;53770;42.334;23.550;2022-09-03T12:28:34;34.40;33.72
66861;SHT31;53770;42.334;23.550;2022-09-03T12:31:07;34.14;34.14
66861;SHT31;53770;42.334;23.550;2022-09-03T12:33:47;34.95;33.08
66861;SHT31;53770;42.334;23.550;2022-09-03T12:36:14;36.32;31.31
66861;SHT31;53770;42.334;23.550;2022-09-03T12:38:41;38.87;28.85
66861;SHT31;53770;42.334;23.550;2022-09-03T12:41:24;40.77;26.25
66861;SHT31;53770;42.334;23.550;2022-09-03T12:43:53;40.51;25.47
66861;SHT31;53770;42.334;23.550;2022-09-03T12:46:25;38.97;27.09
66861;SHT31;53770;42.334;23.550;2022-09-03T12:48:57;37.05;29.11
66861;SHT31;53770;42.334;23.550;2022-09-03T12:51:31;37.86;28.40
66861;SHT31;53770;42.334;23.550;2022-09-03T12:53:58;40.21;26.13
66861;SHT31;53770;42.334;23.550;2022-09-03T12:56:27;42.88;23.91
66861;SHT31;53770;42.334;23.550;2022-09-03T12:58:58;44.13;22.09
66861;SHT31;53770;42.334;23.550;2022-09-03T13:01:30;45.49;21.19
66861;SHT31;53770;42.334;23.550;2022-09-03T13:04:02;45.76;20.94
66861;SHT31;53770;42.334;23.550;2022-09-03T13:06:38;44.92;20.82
66861;SHT31;53770;42.334;23.550;2022-09-03T13:09:08;42.70;22.58
66861;SHT31;53770;42.334;23.550;2022-09-03T13:11:37;40.41;25.03
66861;SHT31;53770;42.334;23.550;2022-09-03T13:14:06;38.60;26.89
66861;SHT31;53770;42.334;23.550;2022-09-03T13:16:51;38.62;26.30
66861;SHT31;53770;42.334;23.550;2022-09-03T13:19:31;37.87;26.27
66861;SHT31;53770;42.334;23.550;2022-09-03T13:22:07;39.43;25.44
66861;SHT31;53770;42.334;23.550;2022-09-03T13:24:45;41.13;23.59
66861;SHT31;53770;42.334;23.550;2022-09-03T13:27:22;42.77;21.95
66861;SHT31;53770;42.334;23.550;2022-09-03T13:30:00;42.58;21.99
66861;SHT31;53770;42.334;23.550;2022-09-03T13:32:35;42.03;22.64
66861;SHT31;53770;42.334;23.550;2022-09-03T13:35:08;41.74;22.94
66861;SHT31;53770;42.334;23.550;2022-09-03T13:37:38;42.43;22.12
66861;SHT31;53770;42.334;23.550;2022-09-03T13:40:13;43.58;21.38
66861;SHT31;53770;42.334;23.550;2022-09-03T13:42:44;44.74;19.94
66861;SHT31;53770;42.334;23.550;2022-09-03T13:45:22;45.30;20.01
66861;SHT31;53770;42.334;23.550;2022-09-03T13:47:56;46.01;19.53
66861;SHT31;53770;42.334;23.550;2022-09-03T13:50:46;45.42;19.97
66861;SHT31;53770;42.334;23.550;2022-09-03T13:53:18;45.54;20.08
66861;SHT31;53770;42.334;23.550;2022-09-03T13:55:52;46.17;19.69
66861;SHT31;53770;42.334;23.550;2022-09-03T13:58:26;46.55;19.20
66861;SHT31;53770;42.334;23.550;2022-09-03T14:01:07;46.97;18.84
66861;SHT31;53770;42.334;23.550;2022-09-03T14:03:43;46.89;18.31
66861;SHT31;53770;42.334;23.550;2022-09-03T14:06:17;46.10;18.46
66861;SHT31;53770;42.334;23.550;2022-09-03T14:08:56;45.32;19.68
66861;SHT31;53770;42.334;23.550;2022-09-03T14:11:30;45.52;19.49
66861;SHT31;53770;42.334;23.550;2022-09-03T14:14:08;45.03;20.27
66861;SHT31;53770;42.334;23.550;2022-09-03T14:16:41;44.38;20.59
66861;SHT31;53770;42.334;23.550;2022-09-03T14:19:14;44.70;20.60
66861;SHT31;53770;42.334;23.550;2022-09-03T14:21:46;45.02;20.61
66861;SHT31;53770;42.334;23.550;2022-09-03T14:24:21;44.41;21.31
66861;SHT31;53770;42.334;23.550;2022-09-03T14:26:51;43.04;22.47
66861;SHT31;53770;42.334;23.550;2022-09-03T14:29:23;42.43;23.07
66861;SHT31;53770;42.334;23.550;2022-09-03T14:32:10;42.42;23.08
66861;SHT31;53770;42.334;23.550;2022-09-03T14:34:48;42.14;23.48
66861;SHT31;53770;42.334;23.550;2022-09-03T14:37:31;42.07;23.15
66861;SHT31;53770;42.334;23.550;2022-09-03T14:40:04;41.45;23.61
66861;SHT31;53770;42.334;23.550;2022-09-03T14:42:49;40.21;24.57
66861;SHT31;53770;42.334;23.550;2022-09-03T14:45:31;38.35;26.51
66861;SHT31;53770;42.334;23.550;2022-09-03T14:48:24;36.19;28.83
66861;SHT31;53770;42.334;23.550;2022-09-03T14:51:08;34.18;32.23
66861;SHT31;53770;42.334;23.550;2022-09-03T14:54:00;33.41;33.01
66861;SHT31;53770;42.334;23.550;2022-09-03T14:56:41;34.37;32.03
66861;SHT31;53770;42.334;23.550;2022-09-03T14:59:37;35.35;30.59
66861;SHT31;53770;42.334;23.550;2022-09-03T15:02:42;34.97;30.43
66861;SHT31;53770;42.334;23.550;2022-09-03T15:05:16;35.13;30.88
66861;SHT31;53770;42.334;23.550;2022-09-03T15:07:48;35.50;30.36
66861;SHT31;53770;42.334;23.550;2022-09-03T15:10:23;35.86;29.91
66861;SHT31;53770;42.334;23.550;2022-09-03T15:12:54;36.05;29.20
66861;SHT31;53770;42.334;23.550;2022-09-03T15:15:29;35.53;29.82
66861;SHT31;53770;42.334;23.550;2022-09-03T15:18:13;34.04;31.38
66861;SHT31;53770;42.334;23.550;2022-09-03T15:20:48;32.70;33.47
66861;SHT31;53770;42.334;23.550;2022-09-03T15:23:22;31.54;35.20
66861;SHT31;53770;42.334;23.550;2022-09-03T15:26:15;30.31;37.15
66861;SHT31;53770;42.334;23.550;2022-09-03T15:29:04;29.44;38.96
66861;SHT31;53770;42.334;23.550;2022-09-03T15:31:44;29.42;39.29
66861;SHT31;53770;42.334;23.550;2022-09-03T15:34:26;28.89;39.71
66861;SHT31;53770;42.334;23.550;2022-09-03T15:36:57;28.15;41.01
66861;SHT31;53770;42.334;23.550;2022-09-03T15:39:29;27.46;42.14
66861;SHT31;53770;42.334;23.550;2022-09-03T15:41:58;26.91;43.25
66861;SHT31;53770;42.334;23.550;2022-09-03T15:44:27;26.50;44.56
66861;SHT31;53770;42.334;23.550;2022-09-03T15:47:01;25.99;45.44
66861;SHT31;53770;42.334;23.550;2022-09-03T15:49:36;25.54;46.18